Time;durP1;ratioP1;P1;durP2;ratioP2;P2;SDS_P1;SDS_P2;PMS_P1;PMS_P2;Temp;Humidity;BMP_temperature;BMP_pressure;BME280_temperature;BME280_humidity;BME280_pressure;Samples;Min_cycle;Max_cycle;Signal;HPM_P1;HPM_P2
2023/05/27 00:02:04;;;;;;;18.30;3.67;;;;;;;-143.48;72.69;118439.88;5055384;28;20399;-27
2023/05/27 00:04:29;;;;;;;16.52;3.70;;;;;;;-143.48;72.61;118439.88;5055127;28;20033;-27
2023/05/27 00:06:54;;;;;;;14.80;3.80;;;;;;;-143.48;73.36;118439.88;5055297;28;20016;-27
2023/05/27 00:09:20;;;;;;;18.23;4.47;;;;;;;-143.48;73.03;118439.88;5055158;28;20020;-27
2023/05/27 00:11:45;;;;;;;19.35;3.80;;;;;;;-143.48;73.45;118439.88;5054944;28;20353;-27
2023/05/27 00:14:11;;;;;;;16.48;3.10;;;;;;;-143.48;74.57;118439.88;5055418;28;20426;-27
2023/05/27 00:16:36;;;;;;;18.30;3.78;;;;;;;-143.48;75.02;118439.88;5054682;28;20097;-27
2023/05/27 00:19:02;;;;;;;13.02;3.30;;;;;;;-143.48;75.67;118439.88;5054919;28;20025;-26
2023/05/27 00:21:28;;;;;;;15.70;3.45;;;;;;;-143.48;76.46;118439.88;5037570;28;20025;-27
2023/05/27 00:23:53;;;;;;;12.55;3.20;;;;;;;-143.48;76.68;118439.88;5054946;28;20146;-27
2023/05/27 00:26:18;;;;;;;16.38;3.20;;;;;;;-143.48;76.30;118439.88;5054672;28;20067;-27
2023/05/27 00:28:44;;;;;;;17.20;3.83;;;;;;;-143.48;78.32;118439.88;5054922;28;20025;-27
2023/05/27 00:31:09;;;;;;;16.40;3.60;;;;;;;-143.48;78.30;118439.88;5054415;28;20027;-27
2023/05/27 00:33:34;;;;;;;13.35;3.55;;;;;;;-143.48;77.59;118439.88;5054461;28;20384;-27
2023/05/27 00:36:00;;;;;;;15.80;3.42;;;;;;;-143.48;77.68;118439.88;5054445;28;20032;-27
2023/05/27 00:38:25;;;;;;;11.40;3.38;;;;;;;-143.48;77.52;118439.88;5054416;28;20035;-27
2023/05/27 00:40:53;;;;;;;17.42;3.60;;;;;;;-143.48;78.31;118439.88;5054245;28;20108;-27
2023/05/27 00:43:18;;;;;;;19.38;4.40;;;;;;;-143.48;77.78;118439.88;5054254;28;20087;-27
2023/05/27 00:45:43;;;;;;;14.60;3.60;;;;;;;-143.48;77.41;118439.88;5054161;28;20512;-27
2023/05/27 00:48:09;;;;;;;14.93;3.47;;;;;;;-143.48;77.85;118439.88;5054511;28;20024;-27
2023/05/27 00:50:34;;;;;;;15.93;3.65;;;;;;;-143.48;78.19;118439.88;5054182;28;20126;-27
2023/05/27 00:53:00;;;;;;;20.75;4.25;;;;;;;-143.48;79.84;118439.88;5054277;28;20107;-27
2023/05/27 00:55:26;;;;;;;17.17;3.25;;;;;;;-143.48;79.37;118439.88;5054146;28;20028;-27
2023/05/27 00:57:54;;;;;;;24.33;3.90;;;;;;;-143.48;79.08;118439.88;5053546;28;20044;-26
2023/05/27 01:00:21;;;;;;;17.70;3.55;;;;;;;-143.48;79.56;118439.88;5053923;28;20036;-27
2023/05/27 01:02:47;;;;;;;14.90;3.65;;;;;;;-143.48;79.44;118439.88;5054138;28;20072;-27
2023/05/27 01:05:15;;;;;;;16.00;3.85;;;;;;;-143.48;79.05;118439.88;5054085;28;20027;-27
2023/05/27 01:08:01;;;;;;;15.55;3.25;;;;;;;-143.48;78.97;118439.88;5053881;28;20032;-26
2023/05/27 01:10:31;;;;;;;13.15;4.05;;;;;;;-143.48;79.38;118439.88;5054115;28;20021;-27
2023/05/27 01:13:01;;;;;;;17.08;3.72;;;;;;;-143.48;79.32;118439.88;5053776;28;20024;-27
2023/05/27 01:15:28;;;;;;;17.77;3.85;;;;;;;-143.48;79.17;118439.88;5053668;28;20111;-27
2023/05/27 01:17:56;;;;;;;12.50;3.70;;;;;;;-143.48;79.48;118439.88;5054005;28;20077;-27
2023/05/27 01:20:22;;;;;;;17.38;3.60;;;;;;;-143.48;80.20;118439.88;5054121;28;20043;-27
2023/05/27 01:22:52;;;;;;;13.45;3.33;;;;;;;-143.48;80.25;118439.88;5053616;28;20025;-27
2023/05/27 01:25:18;;;;;;;12.57;3.58;;;;;;;-143.48;81.21;118439.88;5053689;28;20021;-27
2023/05/27 01:27:44;;;;;;;16.60;3.83;;;;;;;-143.48;80.94;118439.88;5053556;28;20021;-27
2023/05/27 01:30:10;;;;;;;10.20;3.10;;;;;;;-143.48;80.97;118439.88;5053779;28;20360;-27
2023/05/27 01:33:01;;;;;;;12.57;3.00;;;;;;;-143.48;80.60;118439.88;5053666;28;20480;-27
2023/05/27 01:35:37;;;;;;;18.17;3.85;;;;;;;-143.48;81.24;118439.88;5035632;28;20115;-27
2023/05/27 01:38:07;;;;;;;21.13;3.85;;;;;;;-143.48;82.41;118439.88;5053906;28;20029;-29
2023/05/27 01:40:34;;;;;;;16.48;3.38;;;;;;;-143.48;82.74;118439.88;5054780;28;20036;-28
2023/05/27 01:43:00;;;;;;;21.73;4.13;;;;;;;-143.48;82.87;118439.88;5054084;28;20023;-27
2023/05/27 01:45:26;;;;;;;20.15;3.65;;;;;;;-143.48;82.01;118439.88;5054500;28;20032;-27
2023/05/27 01:47:52;;;;;;;16.90;3.45;;;;;;;-143.48;82.72;118439.88;5054605;28;20028;-27
2023/05/27 01:50:17;;;;;;;21.65;3.88;;;;;;;-143.48;82.07;118439.88;5054635;28;20052;-28
2023/05/27 01:52:43;;;;;;;16.17;4.07;;;;;;;-143.48;83.13;118439.88;5053724;28;20029;-27
2023/05/27 01:55:09;;;;;;;15.50;3.47;;;;;;;-143.48;82.99;118439.88;5053189;28;20353;-27
2023/05/27 01:57:34;;;;;;;16.70;3.92;;;;;;;-143.48;83.18;118439.88;5053426;28;20464;-27
2023/05/27 02:00:00;;;;;;;14.63;3.70;;;;;;;-143.48;83.25;118439.88;5053134;28;20032;-27
2023/05/27 02:02:25;;;;;;;18.85;3.40;;;;;;;-143.48;82.80;118439.88;5053364;28;20025;-27
2023/05/27 02:04:51;;;;;;;15.93;3.70;;;;;;;-143.48;82.51;118439.88;5053127;28;20029;-27
2023/05/27 02:07:16;;;;;;;15.65;3.60;;;;;;;-143.48;83.60;118439.88;5053106;28;20074;-27
2023/05/27 02:09:43;;;;;;;18.92;4.07;;;;;;;-143.48;84.48;118439.88;5037775;28;20056;-27
2023/05/27 02:12:08;;;;;;;15.90;3.60;;;;;;;-143.48;85.55;118439.88;5057382;28;20025;-28
2023/05/27 02:14:38;;;;;;;16.13;3.25;;;;;;;-143.48;86.27;118439.88;5057603;28;20098;-27
2023/05/27 02:17:04;;;;;;;16.08;3.65;;;;;;;-143.48;86.23;118439.88;5057110;28;20434;-27
2023/05/27 02:19:29;;;;;;;16.67;3.42;;;;;;;-143.48;86.40;118439.88;5057296;28;20032;-27
2023/05/27 02:21:54;;;;;;;20.33;3.60;;;;;;;-143.48;87.17;118439.88;5056777;28;20349;-28
2023/05/27 02:24:20;;;;;;;15.05;3.78;;;;;;;-143.48;88.06;118439.88;5056890;28;20122;-27
2023/05/27 02:26:45;;;;;;;13.32;3.50;;;;;;;-143.48;87.42;118439.88;5057184;28;20052;-28
2023/05/27 02:29:10;;;;;;;13.18;4.20;;;;;;;-143.48;87.71;118439.88;5056838;28;20414;-29
2023/05/27 02:31:35;;;;;;;18.30;3.70;;;;;;;-143.48;87.25;118439.88;5056980;28;20036;-28
2023/05/27 02:34:01;;;;;;;20.98;3.70;;;;;;;-143.48;87.68;118439.88;5057146;28;20044;-27
2023/05/27 02:36:27;;;;;;;20.42;3.60;;;;;;;-143.48;88.40;118439.88;5057236;28;20029;-28
2023/05/27 02:38:52;;;;;;;16.70;3.80;;;;;;;-143.48;86.81;118439.88;5056992;28;20051;-27
2023/05/27 02:41:17;;;;;;;11.88;3.78;;;;;;;-143.48;88.40;118439.88;5057117;28;20433;-27
2023/05/27 02:43:43;;;;;;;19.10;3.75;;;;;;;-143.48;88.58;118439.88;5057020;28;20090;-27
2023/05/27 02:46:08;;;;;;;16.10;3.75;;;;;;;-143.48;87.94;118439.88;5056481;28;20021;-27
2023/05/27 02:48:33;;;;;;;18.02;3.92;;;;;;;-143.48;88.40;118439.88;5056484;28;20419;-28
2023/05/27 02:50:58;;;;;;;16.65;3.90;;;;;;;-143.48;88.39;118439.88;5056756;28;20021;-28
2023/05/27 02:53:24;;;;;;;17.48;4.22;;;;;;;-143.48;88.88;118439.88;5056562;28;20468;-27
2023/05/27 02:55:50;;;;;;;14.20;4.50;;;;;;;-143.48;89.25;118439.88;5056310;28;20083;-27
2023/05/27 02:58:15;;;;;;;13.13;3.88;;;;;;;-143.48;88.90;118439.88;5056320;28;20021;-27
2023/05/27 03:00:41;;;;;;;17.25;3.97;;;;;;;-143.48;88.53;118439.88;5056505;28;20047;-28
2023/05/27 03:03:07;;;;;;;15.32;3.65;;;;;;;-143.48;89.57;118439.88;5056226;28;20107;-28
2023/05/27 03:05:34;;;;;;;18.95;4.43;;;;;;;-143.48;89.18;118439.88;5056052;28;20029;-27
2023/05/27 03:08:00;;;;;;;19.38;4.13;;;;;;;-143.48;88.92;118439.88;5056174;28;20107;-28
2023/05/27 03:10:25;;;;;;;20.17;4.78;;;;;;;-143.48;89.00;118439.88;5056358;28;20108;-28
2023/05/27 03:12:50;;;;;;;16.75;3.70;;;;;;;-143.48;89.02;118439.88;5056564;28;20368;-28
2023/05/27 03:15:16;;;;;;;15.45;3.60;;;;;;;-143.48;88.39;118439.88;5056083;28;20378;-28
2023/05/27 03:17:41;;;;;;;15.05;3.92;;;;;;;-143.48;89.23;118439.88;5038092;28;20083;-28
2023/05/27 03:20:07;;;;;;;20.45;3.72;;;;;;;-143.48;88.97;118439.88;5055332;28;20051;-28
2023/05/27 03:22:35;;;;;;;16.10;4.40;;;;;;;-143.48;88.68;118439.88;5055824;28;20035;-27
2023/05/27 03:25:01;;;;;;;19.40;4.68;;;;;;;-143.48;89.82;118439.88;5055882;28;20036;-28
2023/05/27 03:27:26;;;;;;;15.50;3.97;;;;;;;-143.48;90.97;118439.88;5056001;28;20127;-29
2023/05/27 03:29:52;;;;;;;15.93;3.95;;;;;;;-143.48;91.77;118439.88;5037899;28;20391;-27
2023/05/27 03:32:17;;;;;;;18.95;4.22;;;;;;;-143.48;91.94;118439.88;5055786;28;20025;-28
2023/05/27 03:34:42;;;;;;;16.52;4.05;;;;;;;-143.48;92.35;118439.88;5055628;28;20492;-28
2023/05/27 03:37:09;;;;;;;18.30;4.80;;;;;;;-143.48;91.29;118439.88;5055846;28;20028;-28
2023/05/27 03:39:34;;;;;;;15.40;4.22;;;;;;;-143.48;91.65;118439.88;5055672;28;20123;-27
2023/05/27 03:42:00;;;;;;;19.58;4.25;;;;;;;-143.48;91.21;118439.88;5055957;28;20111;-27
2023/05/27 03:44:25;;;;;;;14.43;4.32;;;;;;;-143.48;90.54;118439.88;5055727;28;20021;-27
2023/05/27 03:46:51;;;;;;;17.73;4.28;;;;;;;-143.48;91.32;118439.88;5055422;28;20028;-28
2023/05/27 03:49:16;;;;;;;22.75;4.13;;;;;;;-143.48;90.87;118439.88;5055559;28;20043;-28
2023/05/27 03:51:41;;;;;;;15.57;4.10;;;;;;;-143.48;90.42;118439.88;5055295;28;20028;-28
2023/05/27 03:54:07;;;;;;;16.05;3.75;;;;;;;-143.48;91.28;118439.88;5055283;28;20065;-27
2023/05/27 03:56:32;;;;;;;16.30;4.15;;;;;;;-143.48;91.74;118439.88;5055429;28;20021;-28
2023/05/27 03:58:57;;;;;;;15.10;4.13;;;;;;;-143.48;92.10;118439.88;5055202;28;20060;-28
2023/05/27 04:01:23;;;;;;;17.70;4.20;;;;;;;-143.48;91.74;118439.88;5037294;28;20017;-27
2023/05/27 04:03:48;;;;;;;20.98;4.72;;;;;;;-143.48;90.62;118439.88;5037778;28;20069;-28
2023/05/27 04:06:14;;;;;;;23.58;4.63;;;;;;;-143.48;89.67;118439.88;5055231;28;20032;-28
2023/05/27 04:08:40;;;;;;;15.20;3.88;;;;;;;-143.48;90.22;118439.88;5055364;28;20047;-27
2023/05/27 04:11:06;;;;;;;17.80;4.78;;;;;;;-143.48;90.95;118439.88;5055067;28;20440;-28
2023/05/27 04:13:31;;;;;;;16.98;4.57;;;;;;;-143.48;91.54;118439.88;5054922;28;20059;-28
2023/05/27 04:15:57;;;;;;;19.00;4.78;;;;;;;-143.48;92.23;118439.88;5054793;28;20045;-28
2023/05/27 04:18:22;;;;;;;18.27;4.20;;;;;;;-143.48;90.95;118439.88;5055044;28;20017;-27
2023/05/27 04:20:50;;;;;;;18.88;4.32;;;;;;;-143.48;90.34;118439.88;5054734;28;20443;-28
2023/05/27 04:23:16;;;;;;;21.23;4.22;;;;;;;-143.48;89.75;118439.88;5054910;28;20384;-28
2023/05/27 04:25:41;;;;;;;27.52;4.93;;;;;;;-143.48;90.66;118439.88;5055052;28;20021;-28
2023/05/27 04:28:09;;;;;;;12.65;3.70;;;;;;;-143.48;92.14;118439.88;5054706;28;20021;-28
2023/05/27 04:30:36;;;;;;;16.00;4.40;;;;;;;-143.48;91.52;118439.88;5054515;28;20017;-28
2023/05/27 04:33:02;;;;;;;20.67;4.13;;;;;;;-143.48;90.63;118439.88;5053567;28;20460;-28
2023/05/27 04:35:30;;;;;;;16.17;4.35;;;;;;;-143.48;89.53;118439.88;5054839;28;20472;-28
2023/05/27 04:37:56;;;;;;;22.10;4.13;;;;;;;-143.48;88.49;118439.88;5036606;28;20032;-28
2023/05/27 04:40:22;;;;;;;18.52;4.72;;;;;;;-143.48;89.34;118439.88;5054552;28;20036;-27
2023/05/27 04:42:47;;;;;;;16.95;4.22;;;;;;;-143.48;88.84;118439.88;5054946;28;20067;-28
2023/05/27 04:45:12;;;;;;;14.63;4.47;;;;;;;-143.48;87.53;118439.88;5054193;28;20025;-28
2023/05/27 04:47:40;;;;;;;20.38;4.40;;;;;;;-143.48;89.55;118439.88;5054536;28;20024;-27
2023/05/27 04:50:10;;;;;;;21.83;4.50;;;;;;;-143.48;89.13;118439.88;5054466;28;20017;-28
2023/05/27 04:52:38;;;;;;;17.67;4.22;;;;;;;-143.48;89.49;118439.88;5054535;28;20039;-28
2023/05/27 04:55:08;;;;;;;21.75;4.47;;;;;;;-143.48;88.97;118439.88;5054598;28;20483;-28
2023/05/27 04:57:34;;;;;;;17.80;4.00;;;;;;;-143.48;88.90;118439.88;5054411;28;20352;-27
2023/05/27 05:02:35;;;;;;;17.65;3.90;;;;;;;-143.48;86.27;118439.88;5054382;28;20119;-28
2023/05/27 05:05:11;;;;;;;24.67;4.43;;;;;;;-143.48;87.85;118439.88;5053945;28;20024;-28
2023/05/27 05:07:37;;;;;;;18.35;3.83;;;;;;;-143.48;86.75;118439.88;5036909;28;20087;-28
2023/05/27 05:10:05;;;;;;;14.75;4.07;;;;;;;-143.48;85.40;118439.88;5053829;28;20036;-28
2023/05/27 05:12:30;;;;;;;17.75;4.35;;;;;;;-143.48;85.60;118439.88;5054198;28;20386;-28
2023/05/27 05:14:56;;;;;;;21.20;3.92;;;;;;;-143.48;85.72;118439.88;5053608;28;20028;-28
2023/05/27 05:17:24;;;;;;;16.90;3.97;;;;;;;-143.48;85.07;118439.88;5051910;28;20095;-28
2023/05/27 05:19:51;;;;;;;19.58;4.45;;;;;;;-143.48;84.53;118439.88;5053824;28;20112;-28
2023/05/27 05:22:18;;;;;;;19.55;4.07;;;;;;;-143.48;85.49;118439.88;5053640;28;20082;-28
2023/05/27 05:24:47;;;;;;;18.80;4.13;;;;;;;-143.48;84.56;118439.88;5053832;28;20024;-28
2023/05/27 05:27:12;;;;;;;19.15;4.57;;;;;;;-143.48;85.50;118439.88;5053477;28;20048;-28
2023/05/27 05:29:38;;;;;;;20.50;3.90;;;;;;;-143.48;85.29;118439.88;5053862;28;20032;-28
2023/05/27 05:32:04;;;;;;;15.43;4.25;;;;;;;-143.48;85.48;118439.88;5054130;28;20454;-28
2023/05/27 05:34:29;;;;;;;16.15;4.13;;;;;;;-143.48;83.03;118439.88;5053426;28;20029;-28
2023/05/27 05:36:55;;;;;;;19.50;3.92;;;;;;;-143.48;83.91;118439.88;5035651;28;20029;-28
2023/05/27 05:39:20;;;;;;;21.65;4.05;;;;;;;-143.48;82.42;118439.88;5053531;28;20025;-28
2023/05/27 05:41:46;;;;;;;18.55;4.00;;;;;;;-143.48;82.07;118439.88;5053606;28;20024;-28
2023/05/27 05:44:12;;;;;;;17.02;3.95;;;;;;;-143.48;81.34;118439.88;5053285;28;20021;-28
2023/05/27 05:46:37;;;;;;;17.33;3.80;;;;;;;-143.48;70.00;118439.88;5053684;28;20029;-28
2023/05/27 05:49:05;;;;;;;18.80;4.15;;;;;;;-143.48;59.98;118439.88;5053578;28;20122;-28
2023/05/27 05:51:30;;;;;;;14.82;4.50;;;;;;;-143.48;58.21;118439.88;5053166;28;20028;-28
2023/05/27 05:53:56;;;;;;;20.48;4.18;;;;;;;-143.48;54.74;118439.88;5035365;28;20025;-28
2023/05/27 05:56:22;;;;;;;17.50;4.05;;;;;;;-143.48;52.04;118439.88;5052959;28;20077;-29
2023/05/27 06:01:34;;;;;;;15.35;3.95;;;;;;;-143.48;53.71;118439.88;5030799;28;20049;-71
2023/05/27 06:04:04;;;;;;;17.92;4.05;;;;;;;-143.48;52.12;118439.88;5032928;28;20022;-71
2023/05/27 06:06:29;;;;;;;18.40;4.30;;;;;;;-143.48;51.89;118439.88;5032086;28;20029;-71
2023/05/27 06:08:55;;;;;;;20.38;4.07;;;;;;;-143.48;48.71;118439.88;5033422;28;20025;-71
2023/05/27 06:11:21;;;;;;;15.52;3.90;;;;;;;-143.48;48.85;118439.88;5033287;28;20037;-71
2023/05/27 06:13:46;;;;;;;13.00;3.75;;;;;;;-143.48;48.30;118439.88;5033200;28;20022;-71
2023/05/27 06:16:16;;;;;;;16.75;4.07;;;;;;;-143.48;50.15;118439.88;5033589;28;20026;-72
2023/05/27 06:18:45;;;;;;;20.80;4.07;;;;;;;-143.48;51.04;118439.88;5015521;28;20024;-71
2023/05/27 06:21:11;;;;;;;14.38;4.13;;;;;;;-143.48;49.52;118439.88;5030962;28;20036;-73
2023/05/27 06:23:36;;;;;;;13.85;3.90;;;;;;;-143.48;50.08;118439.88;5014131;28;20144;-72
2023/05/27 06:26:02;;;;;;;19.30;3.80;;;;;;;-143.48;49.34;118439.88;5031932;28;20029;-74
2023/05/27 06:28:27;;;;;;;16.75;4.05;;;;;;;-143.48;49.81;118439.88;5031977;28;20102;-74
2023/05/27 06:30:52;;;;;;;22.42;4.35;;;;;;;-143.48;46.79;118439.88;5031793;28;20401;-75
2023/05/27 06:33:17;;;;;;;19.85;3.85;;;;;;;-143.48;49.50;118439.88;5031741;28;20068;-74
2023/05/27 06:35:44;;;;;;;21.80;3.88;;;;;;;-143.48;47.62;118439.88;5033219;28;20021;-74
2023/05/27 06:38:09;;;;;;;14.57;3.95;;;;;;;-143.48;46.75;118439.88;5033356;28;20376;-74
2023/05/27 06:40:34;;;;;;;15.07;4.00;;;;;;;-143.48;46.88;118439.88;5032940;28;20013;-74
2023/05/27 06:43:00;;;;;;;14.35;3.70;;;;;;;-143.48;45.56;118439.88;5015242;28;20037;-74
2023/05/27 06:45:25;;;;;;;17.15;4.15;;;;;;;-143.48;45.40;118439.88;5032462;28;20025;-75
2023/05/27 06:47:50;;;;;;;16.38;4.03;;;;;;;-143.48;48.14;118439.88;5032814;28;20067;-76
2023/05/27 06:50:16;;;;;;;15.68;3.85;;;;;;;-143.48;49.49;118439.88;5015285;28;20420;-76
2023/05/27 06:52:41;;;;;;;22.13;4.43;;;;;;;-143.48;49.31;118439.88;5032879;28;20469;-76
2023/05/27 06:55:07;;;;;;;15.50;4.25;;;;;;;-143.48;50.07;118439.88;5032987;28;20335;-75
2023/05/27 06:57:32;;;;;;;21.45;4.22;;;;;;;-143.48;54.03;118439.88;5036453;28;20026;-75
2023/05/27 06:59:58;;;;;;;19.95;4.43;;;;;;;-143.48;53.32;118439.88;5018582;28;20088;-75
2023/05/27 07:02:23;;;;;;;20.88;4.05;;;;;;;-143.48;53.12;118439.88;5018895;28;20457;-75
2023/05/27 07:04:48;;;;;;;19.10;4.13;;;;;;;-143.48;55.71;118439.88;5036370;28;20370;-75
2023/05/27 07:07:14;;;;;;;20.67;4.22;;;;;;;-143.48;53.68;118439.88;5018603;28;20025;-75
2023/05/27 07:09:39;;;;;;;18.42;4.20;;;;;;;-143.48;55.68;118439.88;5036088;28;20152;-75
2023/05/27 07:12:06;;;;;;;19.25;4.25;;;;;;;-143.48;54.33;118439.88;5036452;28;20041;-75
2023/05/27 07:14:32;;;;;;;19.50;4.20;;;;;;;-143.48;53.62;118439.88;5035961;28;20160;-74
2023/05/27 07:16:57;;;;;;;18.52;4.07;;;;;;;-143.48;57.44;118439.88;5018703;28;20387;-75
2023/05/27 07:19:23;;;;;;;18.83;4.40;;;;;;;-143.48;55.50;118439.88;5017589;28;20484;-75
2023/05/27 07:21:48;;;;;;;19.63;4.43;;;;;;;-143.48;53.02;118439.88;5035751;28;20538;-75
2023/05/27 07:24:13;;;;;;;17.55;4.28;;;;;;;-143.48;52.11;118439.88;5018225;28;20018;-75
2023/05/27 07:26:39;;;;;;;17.40;4.22;;;;;;;-143.48;53.12;118439.88;5036083;28;20029;-75
2023/05/27 07:29:05;;;;;;;22.38;4.35;;;;;;;-143.48;51.28;118439.88;5036217;28;20056;-75
2023/05/27 07:31:30;;;;;;;16.30;3.83;;;;;;;-143.48;51.40;118439.88;5036413;28;20049;-78
2023/05/27 07:33:56;;;;;;;17.38;4.00;;;;;;;-143.48;49.67;118439.88;5018473;28;20024;-75
2023/05/27 07:36:21;;;;;;;19.13;4.00;;;;;;;-143.48;50.51;118439.88;5018302;28;20032;-76
2023/05/27 07:38:47;;;;;;;18.15;4.15;;;;;;;-143.48;52.41;118439.88;5036400;28;20026;-76
2023/05/27 07:41:12;;;;;;;20.83;4.18;;;;;;;-143.48;50.22;118439.88;5035450;28;20029;-74
2023/05/27 07:43:38;;;;;;;13.27;3.75;;;;;;;-143.48;55.18;118439.88;5017456;28;20040;-75
2023/05/27 07:46:03;;;;;;;17.45;4.05;;;;;;;-143.48;51.09;118439.88;5017686;28;20021;-74
2023/05/27 07:48:29;;;;;;;18.42;4.32;;;;;;;-143.48;50.36;118439.88;5035476;28;20036;-73
2023/05/27 07:50:55;;;;;;;20.92;4.55;;;;;;;-143.48;51.01;118439.88;5017622;28;20112;-72
2023/05/27 07:53:20;;;;;;;19.25;4.28;;;;;;;-143.48;50.18;118439.88;5035322;28;20025;-74
2023/05/27 07:55:46;;;;;;;19.65;4.18;;;;;;;-143.48;50.61;118439.88;5035180;28;20017;-74
2023/05/27 07:58:11;;;;;;;18.40;5.15;;;;;;;-143.48;50.63;118439.88;5035070;28;20086;-73
2023/05/27 08:00:37;;;;;;;21.25;4.72;;;;;;;-143.48;50.65;118439.88;5017039;28;20045;-74
2023/05/27 08:03:02;;;;;;;16.42;4.35;;;;;;;-143.48;51.99;118439.88;5017024;28;20040;-74
2023/05/27 08:05:27;;;;;;;22.67;4.78;;;;;;;-143.48;50.55;118439.88;5035599;28;20025;-75
2023/05/27 08:07:53;;;;;;;20.17;4.68;;;;;;;-143.48;50.28;118439.88;5035121;28;20388;-75
2023/05/27 08:10:18;;;;;;;18.80;4.43;;;;;;;-143.48;50.18;118439.88;5035842;28;20026;-75
2023/05/27 08:12:43;;;;;;;20.98;4.43;;;;;;;-143.48;51.42;118439.88;5017228;28;20031;-74
2023/05/27 08:15:09;;;;;;;19.42;4.30;;;;;;;-143.48;48.73;118439.88;5018050;28;20048;-75
2023/05/27 08:17:34;;;;;;;21.58;4.70;;;;;;;-143.48;48.02;118439.88;5017753;28;20029;-74
2023/05/27 08:20:00;;;;;;;21.02;4.32;;;;;;;-143.48;48.86;118439.88;5017385;28;20025;-74
2023/05/27 08:22:25;;;;;;;14.88;4.55;;;;;;;-143.48;49.35;118439.88;5017189;28;20127;-74
2023/05/27 08:24:51;;;;;;;17.05;4.13;;;;;;;-143.48;48.95;118439.88;5017463;28;20171;-74
2023/05/27 08:27:17;;;;;;;18.30;4.80;;;;;;;-143.48;50.65;118439.88;5035296;28;20389;-74
2023/05/27 08:29:43;;;;;;;16.23;4.47;;;;;;;-143.48;48.78;118439.88;5035038;28;20030;-74
2023/05/27 08:32:09;;;;;;;18.20;4.30;;;;;;;-143.48;47.44;118439.88;5019318;28;20017;-74
2023/05/27 08:34:34;;;;;;;20.90;4.47;;;;;;;-143.48;46.05;118439.88;5017022;28;20026;-74
2023/05/27 08:37:01;;;;;;;21.80;4.78;;;;;;;-143.48;47.69;118439.88;5017021;28;20026;-74
2023/05/27 08:39:27;;;;;;;17.00;3.97;;;;;;;-143.48;45.36;118439.88;5035042;28;20029;-74
2023/05/27 08:41:53;;;;;;;14.27;4.18;;;;;;;-143.48;46.94;118439.88;5016959;28;20072;-75
2023/05/27 08:44:21;;;;;;;19.48;5.00;;;;;;;-143.48;47.84;118439.88;5034945;28;20121;-75
2023/05/27 08:46:49;;;;;;;15.88;4.18;;;;;;;-143.48;44.37;118439.88;5036191;28;20056;-74
2023/05/27 08:49:14;;;;;;;23.08;4.65;;;;;;;-143.48;46.79;118439.88;5034581;28;20024;-73
2023/05/27 08:51:40;;;;;;;21.02;4.50;;;;;;;-143.48;45.50;118439.88;5016653;28;20104;-74
2023/05/27 08:54:08;;;;;;;15.77;4.15;;;;;;;-143.48;45.36;118439.88;5034520;28;20028;-74
2023/05/27 08:56:35;;;;;;;18.02;5.05;;;;;;;-143.48;45.38;118439.88;5016765;28;20061;-74
2023/05/27 08:59:00;;;;;;;17.75;4.20;;;;;;;-143.48;45.18;118439.88;5016432;28;20025;-73
2023/05/27 09:01:27;;;;;;;17.17;5.03;;;;;;;-143.48;44.41;118439.88;5034324;28;20504;-73
2023/05/27 09:03:55;;;;;;;21.02;4.65;;;;;;;-143.48;43.60;118439.88;5016211;28;20025;-74
2023/05/27 09:06:20;;;;;;;15.40;4.05;;;;;;;-143.48;44.89;118439.88;5033856;28;20045;-74
2023/05/27 09:08:46;;;;;;;18.30;4.28;;;;;;;-143.48;45.62;118439.88;5016184;28;20476;-73
2023/05/27 09:11:22;;;;;;;19.00;4.60;;;;;;;-143.48;44.24;118439.88;5016284;28;20022;-73
2023/05/27 09:13:48;;;;;;;21.80;4.35;;;;;;;-143.48;44.12;118439.88;5015907;28;20029;-73
2023/05/27 09:16:13;;;;;;;19.67;4.53;;;;;;;-143.48;45.82;118439.88;5033495;28;20028;-73
2023/05/27 09:18:41;;;;;;;22.77;5.18;;;;;;;-143.48;45.75;118439.88;5015443;28;20120;-73
2023/05/27 09:21:06;;;;;;;19.73;4.57;;;;;;;-143.48;45.80;118439.88;5033300;28;20034;-73
2023/05/27 09:23:37;;;;;;;21.30;4.65;;;;;;;-143.48;43.45;118439.88;5016100;28;20028;-73
2023/05/27 09:26:07;;;;;;;16.65;5.00;;;;;;;-143.48;42.48;118439.88;5016200;28;20024;-73
2023/05/27 09:28:35;;;;;;;19.00;4.80;;;;;;;-143.48;43.75;118439.88;5031642;28;20029;-74
2023/05/27 09:31:02;;;;;;;18.30;4.47;;;;;;;-143.48;43.30;118439.88;5032063;28;20096;-74
2023/05/27 09:33:32;;;;;;;17.63;4.50;;;;;;;-143.48;45.73;118439.88;5015070;28;20040;-74
2023/05/27 09:35:57;;;;;;;19.77;4.38;;;;;;;-143.48;43.64;118439.88;5014984;28;20052;-75
2023/05/27 09:38:22;;;;;;;18.95;4.47;;;;;;;-143.48;44.20;118439.88;5032468;28;20465;-75
2023/05/27 09:40:48;;;;;;;17.95;4.10;;;;;;;-143.48;42.39;118439.88;5013970;28;20025;-75
2023/05/27 09:43:17;;;;;;;15.70;4.53;;;;;;;-143.48;41.91;118439.88;5031742;28;20029;-75
2023/05/27 09:45:43;;;;;;;17.77;4.28;;;;;;;-143.48;43.00;118439.88;5013451;28;20021;-75
2023/05/27 09:48:11;;;;;;;19.27;4.65;;;;;;;-143.48;41.28;118439.88;5031347;28;20029;-75
2023/05/27 09:50:37;;;;;;;23.73;4.10;;;;;;;-143.48;42.45;118439.88;5031620;28;20036;-75
2023/05/27 09:53:04;;;;;;;22.27;5.00;;;;;;;-143.48;43.98;118439.88;5013639;28;20033;-75
2023/05/27 09:55:30;;;;;;;19.08;4.78;;;;;;;-143.48;42.78;118439.88;5014921;28;20545;-75
2023/05/27 09:57:55;;;;;;;15.60;4.50;;;;;;;-143.48;42.25;118439.88;5033307;28;20021;-75
2023/05/27 10:00:21;;;;;;;20.35;4.70;;;;;;;-143.48;42.96;118439.88;5011733;28;20191;-74
2023/05/27 10:02:48;;;;;;;24.35;4.70;;;;;;;-143.48;42.96;118439.88;5013198;28;20021;-74
2023/05/27 10:05:16;;;;;;;16.33;4.68;;;;;;;-143.48;42.59;118439.88;5013191;28;20101;-74
2023/05/27 10:07:44;;;;;;;17.48;5.25;;;;;;;-143.48;43.01;118439.88;5013406;28;20037;-74
2023/05/27 10:10:11;;;;;;;16.42;5.07;;;;;;;-143.48;43.35;118439.88;5012044;28;20026;-74
2023/05/27 10:12:39;;;;;;;17.23;4.97;;;;;;;-143.48;43.44;118439.88;5013132;28;20099;-74
2023/05/27 10:15:05;;;;;;;20.48;5.20;;;;;;;-143.48;42.57;118439.88;5013063;28;20432;-74
2023/05/27 10:17:48;;;;;;;21.00;5.00;;;;;;;-143.48;41.17;118439.88;5013078;28;20046;-74
2023/05/27 10:20:34;;;;;;;13.35;4.15;;;;;;;-143.48;41.50;118439.88;5013052;28;20370;-74
2023/05/27 10:23:23;;;;;;;18.70;4.97;;;;;;;-143.48;40.72;118439.88;5012489;28;20022;-74
2023/05/27 10:25:50;;;;;;;17.45;4.30;;;;;;;-143.48;42.95;118439.88;5011635;28;20034;-75
2023/05/27 10:28:41;;;;;;;21.88;5.75;;;;;;;-143.48;41.16;118439.88;5013132;28;20026;-74
2023/05/27 10:31:29;;;;;;;17.02;5.07;;;;;;;-143.48;40.02;118439.88;5016114;28;20022;-74
2023/05/27 10:33:57;;;;;;;23.38;5.00;;;;;;;-143.48;39.88;118439.88;5016843;28;20096;-74
2023/05/27 10:36:25;;;;;;;18.65;4.65;;;;;;;-143.48;41.27;118439.88;5014597;28;20018;-74
2023/05/27 10:39:05;;;;;;;19.05;4.65;;;;;;;-143.48;41.44;118439.88;5016779;28;20032;-74
2023/05/27 10:42:00;;;;;;;15.95;4.47;;;;;;;-143.48;40.00;118439.88;5016656;28;20481;-74
2023/05/27 10:44:29;;;;;;;19.02;4.53;;;;;;;-143.48;40.09;118439.88;5008180;28;20042;-74
2023/05/27 10:47:13;;;;;;;16.27;4.65;;;;;;;-143.48;40.87;118439.88;5015435;28;20025;-74
2023/05/27 10:49:40;;;;;;;12.27;3.90;;;;;;;-143.48;40.27;118439.88;5015431;28;20481;-74
2023/05/27 10:52:13;;;;;;;15.48;4.45;;;;;;;-143.48;39.31;118439.88;5016568;28;20486;-74
2023/05/27 10:54:43;;;;;;;15.65;4.05;;;;;;;-143.48;40.57;118439.88;5015310;28;20108;-74
2023/05/27 10:57:09;;;;;;;15.98;4.70;;;;;;;-143.48;40.65;118439.88;5015225;28;20088;-74
2023/05/27 10:59:43;;;;;;;19.52;4.72;;;;;;;-143.48;41.96;118439.88;5014983;28;20437;-74
2023/05/27 11:02:09;;;;;;;17.90;4.63;;;;;;;-143.48;40.08;118439.88;5016592;28;20038;-74
2023/05/27 11:04:37;;;;;;;16.35;4.55;;;;;;;-143.48;39.29;118439.88;5016451;28;20030;-75
2023/05/27 11:07:04;;;;;;;19.90;5.03;;;;;;;-143.48;38.77;118439.88;5016429;28;20532;-74